Time;durP1;ratioP1;P1;durP2;ratioP2;P2;SDS_P1;SDS_P2;PMS_P1;PMS_P2;Temp;Humidity;BMP_temperature;BMP_pressure;BME280_temperature;BME280_humidity;BME280_pressure;Samples;Min_cycle;Max_cycle;Signal;HPM_P1;HPM_P2
2021/09/01 00:00:26;;;;;;;10.58;7.40;;;;;;;12.70;100.00;100331.80;1778798;79;21016;-83
2021/09/01 00:02:54;;;;;;;8.05;6.33;;;;;;;12.67;100.00;100324.48;1776841;80;20962;-83
2021/09/01 00:05:20;;;;;;;8.15;6.42;;;;;;;12.67;100.00;100335.08;1776404;81;21539;-82
2021/09/01 00:07:47;;;;;;;15.70;7.45;;;;;;;12.67;100.00;100340.86;1777120;79;21032;-83
2021/09/01 00:10:14;;;;;;;19.75;8.48;;;;;;;12.67;100.00;100340.37;1776379;81;21057;-84
2021/09/01 00:12:42;;;;;;;10.80;7.75;;;;;;;12.66;100.00;100341.80;1787641;79;21479;-83
2021/09/01 00:15:10;;;;;;;12.00;7.33;;;;;;;12.64;100.00;100345.91;1789381;79;20967;-84
2021/09/01 00:17:37;;;;;;;10.60;7.50;;;;;;;12.64;100.00;100339.78;1773199;81;21528;-85
2021/09/01 00:20:08;;;;;;;11.90;8.05;;;;;;;12.62;100.00;100333.27;1784869;79;21026;-84
2021/09/01 00:22:34;;;;;;;12.47;6.90;;;;;;;12.62;100.00;100344.34;1785718;79;21000;-86
2021/09/01 00:25:00;;;;;;;10.35;7.45;;;;;;;12.60;100.00;100346.27;1773110;79;20994;-84
2021/09/01 00:27:26;;;;;;;11.20;6.87;;;;;;;12.58;100.00;100349.05;1778946;79;21491;-84
2021/09/01 00:29:52;;;;;;;7.97;6.37;;;;;;;12.58;100.00;100357.47;1783557;79;21070;-85
2021/09/01 00:32:18;;;;;;;12.93;7.15;;;;;;;12.56;100.00;100364.20;1751161;82;21038;-85
2021/09/01 00:34:44;;;;;;;9.30;6.72;;;;;;;12.55;100.00;100363.84;1776679;79;20984;-84
2021/09/01 00:37:10;;;;;;;13.68;6.85;;;;;;;12.53;100.00;100375.03;1776903;81;21041;-87
2021/09/01 00:39:36;;;;;;;10.95;6.78;;;;;;;12.52;100.00;100376.48;1776994;81;21052;-83
2021/09/01 00:42:09;;;;;;;9.13;6.20;;;;;;;12.49;100.00;100378.89;1791950;79;21449;-82
2021/09/01 00:44:37;;;;;;;8.88;6.55;;;;;;;12.49;100.00;100378.05;1766543;79;20957;-84
2021/09/01 00:47:05;;;;;;;9.08;6.30;;;;;;;12.46;100.00;100381.78;1780380;79;20987;-84
2021/09/01 00:49:32;;;;;;;10.60;6.60;;;;;;;12.45;100.00;100377.46;1782148;80;21285;-85
2021/09/01 00:51:59;;;;;;;8.73;6.60;;;;;;;12.44;100.00;100382.41;1781958;79;21501;-85
2021/09/01 00:54:28;;;;;;;10.72;7.25;;;;;;;12.43;100.00;100378.05;1808591;79;21484;-85
2021/09/01 00:57:04;;;;;;;12.73;7.62;;;;;;;12.43;100.00;100388.16;1801390;79;21013;-83
2021/09/01 00:59:39;;;;;;;11.03;6.95;;;;;;;12.43;100.00;100385.99;1780827;79;20997;-83
2021/09/01 01:02:06;;;;;;;10.45;6.62;;;;;;;12.42;100.00;100386.97;1790325;79;21005;-85
2021/09/01 01:04:34;;;;;;;9.33;7.03;;;;;;;12.41;100.00;100391.42;1809349;79;21453;-85
2021/09/01 01:07:09;;;;;;;10.18;6.70;;;;;;;12.40;100.00;100395.04;1809138;79;21539;-86
2021/09/01 01:09:36;;;;;;;14.10;7.83;;;;;;;12.40;100.00;100400.33;1807792;79;21010;-85
2021/09/01 01:12:07;;;;;;;8.55;6.72;;;;;;;12.39;100.00;100403.08;1750992;82;21029;-86
2021/09/01 01:14:40;;;;;;;11.45;7.00;;;;;;;12.37;100.00;100404.54;1759000;79;21040;-85
2021/09/01 01:17:08;;;;;;;;;;;;;;;12.37;100.00;100401.02;1755708;79;20986;-85
2021/09/01 01:19:45;;;;;;;12.58;6.47;;;;;;;12.36;100.00;100402.00;1751494;80;20118;-84
2021/09/01 01:22:18;;;;;;;11.43;8.28;;;;;;;12.36;100.00;100409.94;1782080;79;21002;-87
2021/09/01 01:25:02;;;;;;;9.98;6.50;;;;;;;12.36;100.00;100406.80;1752356;79;21066;-86
2021/09/01 01:27:42;;;;;;;9.85;6.80;;;;;;;12.37;100.00;100412.48;1754714;79;21026;-84
2021/09/01 01:30:19;;;;;;;8.33;6.20;;;;;;;12.37;100.00;100409.84;1770286;80;21030;-85
2021/09/01 01:32:49;;;;;;;10.53;6.67;;;;;;;12.38;100.00;100414.16;1773822;79;21027;-83
2021/09/01 01:35:36;;;;;;;10.13;6.42;;;;;;;12.39;100.00;100427.73;1775934;80;21092;-83
2021/09/01 01:38:08;;;;;;;11.10;6.90;;;;;;;12.41;100.00;100426.31;1793662;79;21002;-85
2021/09/01 01:40:37;;;;;;;11.70;6.40;;;;;;;12.42;100.00;100433.28;1809339;79;21002;-87
2021/09/01 01:43:04;;;;;;;11.78;6.53;;;;;;;12.42;100.00;100425.34;1809135;79;20986;-84
2021/09/01 01:45:40;;;;;;;11.73;6.05;;;;;;;12.42;100.00;100432.79;1808053;79;21061;-85
2021/09/01 01:48:08;;;;;;;12.30;6.37;;;;;;;12.44;100.00;100431.36;1775837;79;20961;-82
2021/09/01 01:50:36;;;;;;;10.95;7.12;;;;;;;12.44;100.00;100430.04;1775615;80;20962;-83
2021/09/01 01:53:02;;;;;;;9.63;6.35;;;;;;;12.46;100.00;100436.03;1764097;79;20962;-85
2021/09/01 01:55:28;;;;;;;9.23;6.28;;;;;;;12.46;100.00;100432.06;1766855;79;21061;-85
2021/09/01 01:57:55;;;;;;;8.95;6.50;;;;;;;12.46;100.00;100428.09;1751170;82;21022;-84
2021/09/01 02:00:21;;;;;;;10.40;6.97;;;;;;;12.47;100.00;100430.25;1776735;79;21008;-82
2021/09/01 02:02:47;;;;;;;13.32;6.00;;;;;;;12.47;100.00;100429.80;1782077;80;21019;-83
2021/09/01 02:05:13;;;;;;;10.63;6.25;;;;;;;12.47;100.00;100428.48;1793767;79;20962;-84
2021/09/01 02:07:40;;;;;;;10.38;5.85;;;;;;;12.47;100.00;100430.25;1760566;78;21419;-83
2021/09/01 02:10:08;;;;;;;13.28;7.65;;;;;;;12.49;100.00;100437.60;1778886;79;21048;-85
2021/09/01 02:12:34;;;;;;;10.05;6.05;;;;;;;12.47;100.00;100440.84;1778204;79;21023;-87
2021/09/01 02:15:02;;;;;;;10.20;6.15;;;;;;;12.47;100.00;100448.33;1782250;80;21024;-83
2021/09/01 02:17:30;;;;;;;10.98;6.15;;;;;;;12.47;100.00;100443.03;1798676;79;20997;-85
2021/09/01 02:19:57;;;;;;;11.03;6.10;;;;;;;12.47;100.00;100448.78;1809257;79;21009;-84
2021/09/01 02:22:24;;;;;;;9.10;6.17;;;;;;;12.47;100.00;100448.33;1762133;79;21489;-84
2021/09/01 02:24:50;;;;;;;9.68;5.47;;;;;;;12.47;100.00;100448.33;1774097;79;21452;-85
2021/09/01 02:27:17;;;;;;;10.20;6.33;;;;;;;12.48;100.00;100443.87;1798134;78;20985;-85
2021/09/01 02:29:44;;;;;;;8.33;5.42;;;;;;;12.46;100.00;100451.91;1767675;79;21369;-86
2021/09/01 02:32:10;;;;;;;9.35;6.25;;;;;;;12.45;100.00;100454.21;1804478;79;20989;-84
2021/09/01 02:34:36;;;;;;;8.20;5.75;;;;;;;12.43;100.00;100462.73;1809233;79;21032;-85
2021/09/01 02:37:03;;;;;;;11.57;5.90;;;;;;;12.40;100.00;100457.68;1790265;79;21271;-86
2021/09/01 02:39:29;;;;;;;10.38;6.70;;;;;;;12.38;100.00;100460.95;1797456;79;21014;-85
2021/09/01 02:41:55;;;;;;;8.48;6.20;;;;;;;12.36;100.00;100461.05;1806754;79;21571;-86
2021/09/01 02:44:22;;;;;;;11.80;6.28;;;;;;;12.36;100.00;100466.83;1762867;79;20986;-83
2021/09/01 02:46:48;;;;;;;10.60;6.75;;;;;;;12.35;100.00;100460.70;1769718;79;21003;-85
2021/09/01 02:49:14;;;;;;;9.65;5.62;;;;;;;12.34;100.00;100456.83;1778273;79;20934;-83
2021/09/01 02:51:40;;;;;;;9.70;6.25;;;;;;;12.34;100.00;100462.12;1778934;79;21493;-85
2021/09/01 02:54:06;;;;;;;9.43;4.92;;;;;;;12.33;100.00;100465.25;1778761;79;21096;-85
2021/09/01 02:56:32;;;;;;;11.90;6.60;;;;;;;12.32;100.00;100466.72;1783651;79;20986;-85
2021/09/01 02:58:58;;;;;;;10.72;6.35;;;;;;;12.29;100.00;100452.39;1809010;79;21033;-85
2021/09/01 03:01:24;;;;;;;10.20;6.03;;;;;;;12.29;100.00;100457.69;1808745;79;21020;-86
2021/09/01 03:03:50;;;;;;;8.78;5.75;;;;;;;12.26;100.00;100461.41;1809352;79;21504;-87
2021/09/01 03:06:16;;;;;;;10.10;7.10;;;;;;;12.25;100.00;100462.38;1794905;79;20953;-85
2021/09/01 03:08:42;;;;;;;10.72;6.70;;;;;;;12.23;100.00;100461.64;1751245;82;21050;-85
2021/09/01 03:11:08;;;;;;;8.43;5.83;;;;;;;12.23;100.00;100465.61;1768614;79;20926;-86
2021/09/01 03:13:34;;;;;;;8.78;5.95;;;;;;;12.22;100.00;100463.09;1809124;79;21492;-86
2021/09/01 03:16:01;;;;;;;10.03;6.17;;;;;;;12.20;100.00;100469.81;1809258;79;21068;-85
2021/09/01 03:18:27;;;;;;;9.68;6.62;;;;;;;12.19;100.00;100477.40;1765887;79;20981;-86
2021/09/01 03:20:53;;;;;;;9.55;6.30;;;;;;;12.17;100.00;100474.02;1780174;79;21485;-86
2021/09/01 03:23:20;;;;;;;9.90;6.58;;;;;;;12.15;100.00;100474.15;1781884;80;20963;-85
2021/09/01 03:25:45;;;;;;;11.83;6.87;;;;;;;12.14;100.00;100480.41;1788723;79;20984;-85
2021/09/01 03:28:12;;;;;;;7.85;6.22;;;;;;;12.13;100.00;100485.31;1809162;79;21056;-86
2021/09/01 03:30:38;;;;;;;12.07;7.17;;;;;;;12.12;100.00;100492.06;1783096;78;21049;-88
2021/09/01 03:33:05;;;;;;;12.95;7.65;;;;;;;12.10;100.00;100493.48;1776969;81;21093;-85
2021/09/01 03:35:31;;;;;;;13.10;6.87;;;;;;;12.08;100.00;100492.77;1780021;79;20990;-86
2021/09/01 03:37:57;;;;;;;11.65;7.37;;;;;;;12.10;100.00;100490.00;1809429;78;21037;-85
2021/09/01 03:40:23;;;;;;;8.53;6.03;;;;;;;12.09;100.00;100495.77;1805900;79;21032;-86
2021/09/01 03:42:50;;;;;;;10.28;6.62;;;;;;;12.08;100.00;100490.12;1783430;79;20950;-85
2021/09/01 03:45:16;;;;;;;10.60;6.12;;;;;;;12.08;100.00;100486.65;1809414;79;21511;-84
2021/09/01 03:47:42;;;;;;;13.72;7.28;;;;;;;12.07;100.00;100495.03;1779943;79;20932;-86
2021/09/01 03:50:12;;;;;;;10.58;6.83;;;;;;;12.06;100.00;100492.52;1802431;79;20989;-84
2021/09/01 03:52:38;;;;;;;8.00;5.83;;;;;;;12.05;100.00;100492.17;1809242;79;21040;-86
2021/09/01 03:55:08;;;;;;;9.58;6.65;;;;;;;12.03;100.00;100486.98;1809156;79;20961;-86
2021/09/01 03:57:32;;;;;;;11.48;6.45;;;;;;;12.02;100.00;100497.20;1790678;79;21492;-84
2021/09/01 03:59:59;;;;;;;10.65;7.15;;;;;;;12.01;100.00;100496.85;1777915;79;20978;-87
2021/09/01 04:02:25;;;;;;;12.98;7.45;;;;;;;12.02;100.00;100504.30;1783721;79;21564;-87
2021/09/01 04:04:51;;;;;;;12.20;8.33;;;;;;;12.02;100.00;100501.17;1777166;80;20986;-84
2021/09/01 04:07:17;;;;;;;8.78;6.87;;;;;;;12.02;100.00;100508.27;1782505;79;21452;-84
2021/09/01 04:09:43;;;;;;;14.73;7.45;;;;;;;12.02;100.00;100510.43;1778799;79;20970;-84
2021/09/01 04:12:09;;;;;;;11.63;7.37;;;;;;;12.03;100.00;100511.27;1777128;79;21063;-86
2021/09/01 04:14:35;;;;;;;10.55;7.92;;;;;;;12.02;100.00;100509.11;1777128;81;20996;-86
2021/09/01 04:17:01;;;;;;;10.60;7.35;;;;;;;12.03;100.00;100505.98;1777235;79;21005;-84
2021/09/01 04:19:29;;;;;;;10.65;7.50;;;;;;;12.04;100.00;100514.27;1777281;79;20922;-83
2021/09/01 04:21:55;;;;;;;10.95;7.70;;;;;;;12.05;100.00;100514.65;1777908;79;21077;-84
2021/09/01 04:24:21;;;;;;;10.85;7.60;;;;;;;12.07;100.00;100521.97;1782236;80;21038;-86
2021/09/01 04:26:46;;;;;;;14.33;7.85;;;;;;;12.06;100.00;100520.30;1802519;79;20985;-84
2021/09/01 04:29:12;;;;;;;9.53;6.40;;;;;;;12.07;100.00;100521.97;1791095;79;20953;-87
2021/09/01 04:31:38;;;;;;;12.85;8.05;;;;;;;12.07;100.00;100524.62;1797694;79;21050;-83
2021/09/01 04:34:04;;;;;;;9.20;7.05;;;;;;;12.07;100.00;100530.74;1808902;79;21021;-87
2021/09/01 04:36:30;;;;;;;13.83;7.90;;;;;;;12.07;100.00;100535.20;1809445;79;20997;-86
2021/09/01 04:38:56;;;;;;;11.83;8.03;;;;;;;12.07;100.00;100533.39;1809351;79;21444;-87
2021/09/01 04:41:22;;;;;;;10.70;8.00;;;;;;;12.08;100.00;100531.13;1792996;79;21010;-85
2021/09/01 04:43:48;;;;;;;11.18;7.60;;;;;;;12.07;100.00;100534.71;1793254;79;20954;-86
2021/09/01 04:46:14;;;;;;;11.78;7.12;;;;;;;12.08;100.00;100535.09;1807188;79;21020;-85
2021/09/01 04:48:40;;;;;;;9.80;7.85;;;;;;;12.09;100.00;100534.12;1809325;79;21017;-86
2021/09/01 04:51:06;;;;;;;12.60;8.35;;;;;;;12.10;100.00;100537.61;1809253;79;21014;-82
2021/09/01 04:53:32;;;;;;;12.43;8.15;;;;;;;12.11;100.00;100538.84;1809181;78;21503;-85
2021/09/01 04:55:58;;;;;;;13.72;8.23;;;;;;;12.08;100.00;100533.78;1809269;79;20981;-84
2021/09/01 04:58:24;;;;;;;11.97;7.33;;;;;;;12.11;100.00;100541.93;1809336;79;22191;-86
2021/09/01 05:00:50;;;;;;;10.75;7.40;;;;;;;12.12;100.00;100548.93;1809505;79;21025;-84
2021/09/01 05:03:16;;;;;;;14.30;8.40;;;;;;;12.13;100.00;100547.48;1809630;78;20985;-85
2021/09/01 05:05:42;;;;;;;10.08;7.37;;;;;;;12.15;100.00;100550.86;1809491;78;20960;-84
2021/09/01 05:08:08;;;;;;;12.13;7.62;;;;;;;12.15;100.00;100542.09;1809252;79;20970;-85
2021/09/01 05:10:34;;;;;;;9.45;7.75;;;;;;;12.15;100.00;100548.22;1809404;79;21026;-85
2021/09/01 05:13:00;;;;;;;12.53;8.35;;;;;;;12.15;100.00;100550.86;1809361;79;21048;-85
2021/09/01 05:15:26;;;;;;;10.15;7.05;;;;;;;12.15;100.00;100536.80;1809625;79;21029;-86
2021/09/01 05:17:52;;;;;;;12.88;7.92;;;;;;;12.15;100.00;100544.25;1809329;78;20966;-84
2021/09/01 05:20:18;;;;;;;11.65;7.15;;;;;;;12.16;100.00;100545.09;1790086;78;20985;-85
2021/09/01 05:22:48;;;;;;;10.80;7.40;;;;;;;12.16;100.00;100555.19;1776974;81;21046;-85
2021/09/01 05:25:18;;;;;;;11.53;7.70;;;;;;;12.17;100.00;100562.19;1777142;80;20981;-87
2021/09/01 05:27:50;;;;;;;11.68;7.37;;;;;;;12.17;100.00;100559.54;1776865;81;21112;-86
2021/09/01 05:30:19;;;;;;;12.88;7.97;;;;;;;12.18;100.00;100557.25;1777264;81;21012;-86
2021/09/01 05:32:49;;;;;;;12.07;7.17;;;;;;;12.19;100.00;100561.57;1776964;81;21484;-86
2021/09/01 05:35:15;;;;;;;9.85;7.12;;;;;;;12.22;100.00;100564.47;1777044;80;21029;-85
2021/09/01 05:37:42;;;;;;;10.23;7.53;;;;;;;12.24;100.00;100557.72;1775982;79;20998;-85
2021/09/01 05:40:10;;;;;;;12.40;8.50;;;;;;;12.24;100.00;100566.53;1775588;80;21452;-86
2021/09/01 05:42:37;;;;;;;10.20;7.08;;;;;;;12.27;100.00;100572.88;1775373;80;21536;-84
2021/09/01 05:45:05;;;;;;;10.80;8.03;;;;;;;12.28;100.00;100575.91;1775463;81;20990;-85
2021/09/01 05:47:31;;;;;;;12.95;8.08;;;;;;;12.29;100.00;100572.30;1775364;81;21018;-86
2021/09/01 05:49:58;;;;;;;18.70;7.58;;;;;;;12.30;100.00;100575.30;1775312;80;21444;-83
2021/09/01 05:52:27;;;;;;;10.78;7.15;;;;;;;12.32;100.00;100577.84;1774815;80;20994;-87
2021/09/01 05:54:56;;;;;;;11.63;8.43;;;;;;;12.32;100.00;100580.01;1775188;80;21073;-87
2021/09/01 05:57:36;;;;;;;10.58;7.53;;;;;;;12.34;100.00;100575.91;1775935;79;20994;-85
2021/09/01 06:00:15;;;;;;;12.37;7.70;;;;;;;12.35;100.00;100584.23;1777211;80;20986;-87
2021/09/01 06:03:04;;;;;;;11.93;8.10;;;;;;;12.37;100.00;100577.00;1776867;81;21037;-85
2021/09/01 06:05:31;;;;;;;11.35;7.65;;;;;;;12.41;100.00;100581.96;1776820;81;21018;-87
2021/09/01 06:07:59;;;;;;;12.70;8.80;;;;;;;12.45;100.00;100589.19;1776737;81;20982;-87
2021/09/01 06:10:30;;;;;;;9.70;7.58;;;;;;;12.48;100.00;100591.60;1777007;80;21036;-85
2021/09/01 06:13:07;;;;;;;11.12;7.55;;;;;;;12.51;100.00;100593.17;1776861;81;21527;-85
2021/09/01 06:15:37;;;;;;;12.35;7.12;;;;;;;12.53;100.00;100589.91;1775557;79;21045;-87
2021/09/01 06:18:04;;;;;;;11.10;7.72;;;;;;;12.54;100.00;100592.45;1777054;80;21040;-86
2021/09/01 06:20:31;;;;;;;8.38;6.67;;;;;;;12.56;100.00;100589.67;1776986;80;20986;-87
2021/09/01 06:22:58;;;;;;;9.95;6.45;;;;;;;12.58;100.00;100581.98;1776725;81;20989;-85
2021/09/01 06:25:25;;;;;;;10.48;8.00;;;;;;;12.58;100.00;100590.41;1777004;81;21013;-86
2021/09/01 06:27:51;;;;;;;11.05;6.50;;;;;;;12.61;100.00;100598.12;1776969;80;21006;-86
2021/09/01 06:30:17;;;;;;;9.38;5.80;;;;;;;12.65;100.00;100609.67;1776969;81;21029;-86
2021/09/01 06:32:43;;;;;;;10.20;7.08;;;;;;;12.68;100.00;100598.84;1799381;79;21469;-86
2021/09/01 06:35:10;;;;;;;9.93;6.80;;;;;;;12.73;100.00;100604.27;1809455;79;20966;-84
2021/09/01 06:37:37;;;;;;;11.70;6.78;;;;;;;12.77;100.00;100611.88;1808811;79;21041;-87
2021/09/01 06:40:05;;;;;;;10.03;7.37;;;;;;;12.81;100.00;100611.15;1794966;79;21551;-88
2021/09/01 06:42:30;;;;;;;8.18;6.67;;;;;;;12.83;100.00;100611.86;1783704;80;20928;-85
2021/09/01 06:44:57;;;;;;;8.13;6.33;;;;;;;12.89;100.00;100611.38;1783257;80;20975;-84
2021/09/01 06:47:22;;;;;;;9.23;6.78;;;;;;;12.94;100.00;100609.72;1775831;79;20990;-85
2021/09/01 06:49:48;;;;;;;11.73;7.12;;;;;;;12.97;100.00;100602.86;1775462;80;21026;-84
2021/09/01 06:52:14;;;;;;;12.50;5.47;;;;;;;13.03;100.00;100605.00;1774789;80;21006;-87
2021/09/01 06:54:40;;;;;;;7.67;5.65;;;;;;;13.08;100.00;100608.98;1775365;80;21033;-84
2021/09/01 06:57:06;;;;;;;7.85;5.62;;;;;;;13.12;100.00;100614.88;1775331;80;21010;-88
2021/09/01 06:59:33;;;;;;;10.03;6.35;;;;;;;13.15;100.00;100610.18;1775481;80;21492;-86
2021/09/01 07:01:58;;;;;;;8.48;5.67;;;;;;;13.18;100.00;100611.75;1778552;79;21041;-88
2021/09/01 07:04:24;;;;;;;9.53;6.30;;;;;;;13.20;100.00;100611.65;1806033;79;20977;-85
2021/09/01 07:06:50;;;;;;;7.37;5.33;;;;;;;13.22;100.00;100615.84;1809406;78;20982;-86
2021/09/01 07:09:16;;;;;;;9.25;6.17;;;;;;;13.26;100.00;100619.13;1808878;78;21028;-85
2021/09/01 07:11:42;;;;;;;6.97;5.58;;;;;;;13.32;100.00;100625.27;1809154;78;21056;-85
2021/09/01 07:14:08;;;;;;;7.72;6.28;;;;;;;13.35;100.00;100630.33;1786453;79;21032;-87
2021/09/01 07:16:35;;;;;;;7.50;6.00;;;;;;;13.36;100.00;100631.55;1781145;79;20982;-87
2021/09/01 07:19:01;;;;;;;9.35;6.00;;;;;;;13.38;100.00;100637.55;1781838;79;21005;-86
2021/09/01 07:21:27;;;;;;;7.65;5.47;;;;;;;13.40;100.00;100635.28;1778894;80;21010;-86
2021/09/01 07:23:55;;;;;;;9.68;5.80;;;;;;;13.42;100.00;100637.30;1781394;80;20982;-88
2021/09/01 07:26:20;;;;;;;8.18;6.60;;;;;;;13.43;100.00;100635.88;1784467;80;21049;-85
2021/09/01 07:28:46;;;;;;;9.38;6.12;;;;;;;13.47;100.00;100629.84;1784772;79;21001;-87
2021/09/01 07:31:12;;;;;;;8.18;5.53;;;;;;;13.47;100.00;100628.03;1784195;79;21010;-86
2021/09/01 07:33:39;;;;;;;8.55;5.30;;;;;;;13.51;100.00;100633.92;1781792;79;21569;-88
2021/09/01 07:36:05;;;;;;;10.08;6.05;;;;;;;13.54;100.00;100630.55;1776304;79;21017;-87
2021/09/01 07:38:31;;;;;;;8.63;6.08;;;;;;;13.58;100.00;100629.33;1776813;81;21029;-88
2021/09/01 07:40:57;;;;;;;9.00;6.20;;;;;;;13.62;100.00;100632.56;1783432;79;21068;-83
2021/09/01 07:43:26;;;;;;;10.50;6.08;;;;;;;13.66;100.00;100631.87;1778456;79;21013;-84
2021/09/01 07:45:50;;;;;;;9.70;6.22;;;;;;;13.72;100.00;100635.32;1773501;80;21029;-85
2021/09/01 07:48:16;;;;;;;7.05;5.50;;;;;;;13.78;100.00;100638.32;1782405;80;21002;-85
2021/09/01 07:50:43;;;;;;;9.55;5.75;;;;;;;13.88;100.00;100634.44;1782117;79;21009;-86
2021/09/01 07:53:10;;;;;;;7.70;6.10;;;;;;;13.95;100.00;100637.43;1786804;79;21033;-84
2021/09/01 07:55:37;;;;;;;9.20;6.87;;;;;;;13.98;100.00;100636.69;1776066;81;21009;-85
2021/09/01 07:58:03;;;;;;;9.45;6.90;;;;;;;14.04;100.00;100641.98;1784108;80;21432;-85
2021/09/01 08:00:30;;;;;;;8.38;6.28;;;;;;;14.13;100.00;100643.06;1783922;80;21062;-89
2021/09/01 08:02:56;;;;;;;7.85;5.47;;;;;;;14.17;100.00;100641.83;1771100;80;21005;-87
2021/09/01 08:05:22;;;;;;;7.85;5.92;;;;;;;14.20;100.00;100648.21;1758848;81;21622;-89
2021/09/01 08:07:48;;;;;;;9.18;5.62;;;;;;;14.20;100.00;100653.03;1759214;81;21001;-88
2021/09/01 08:10:15;;;;;;;9.05;5.58;;;;;;;14.24;100.00;100653.61;1764373;80;21434;-86
2021/09/01 08:12:42;;;;;;;9.93;5.42;;;;;;;14.26;100.00;100652.52;1784371;80;21060;-88
2021/09/01 08:15:10;;;;;;;10.50;5.87;;;;;;;14.30;100.00;100655.27;1786215;79;20985;-89
2021/09/01 08:17:38;;;;;;;6.17;5.10;;;;;;;14.36;100.00;100658.41;1808710;79;21028;-87
2021/09/01 08:20:05;;;;;;;11.18;6.25;;;;;;;14.38;100.00;100655.12;1808954;78;21002;-89
2021/09/01 08:22:31;;;;;;;8.70;5.33;;;;;;;14.38;100.00;100656.44;1785132;79;21050;-85
2021/09/01 08:24:57;;;;;;;8.58;5.53;;;;;;;14.38;100.00;100661.75;1782279;80;21011;-85
2021/09/01 08:27:25;;;;;;;6.78;5.72;;;;;;;14.35;100.00;100665.53;1781741;80;20998;-88
2021/09/01 08:29:52;;;;;;;6.92;5.37;;;;;;;14.39;100.00;100662.13;1781694;80;21086;-90
2021/09/01 08:32:18;;;;;;;6.97;4.83;;;;;;;14.44;100.00;100664.73;1782064;80;21477;-90
2021/09/01 08:34:45;;;;;;;7.37;5.00;;;;;;;14.52;100.00;100668.97;1784097;80;20942;-87
2021/09/01 08:37:11;;;;;;;7.78;4.72;;;;;;;14.60;100.00;100677.61;1784316;80;21010;-87
2021/09/01 08:39:37;;;;;;;9.63;5.12;;;;;;;14.67;100.00;100668.16;1782685;80;21489;-89
2021/09/01 08:42:04;;;;;;;8.48;5.47;;;;;;;14.77;100.00;100666.89;1783581;79;21050;-87
2021/09/01 08:44:30;;;;;;;6.87;4.15;;;;;;;14.84;100.00;100673.39;1808581;78;21010;-89
2021/09/01 08:46:59;;;;;;;6.92;5.20;;;;;;;14.92;100.00;100670.91;1780492;78;21646;-86
2021/09/01 08:49:28;;;;;;;9.28;5.92;;;;;;;15.05;100.00;100674.70;1790376;79;21009;-87
2021/09/01 08:51:54;;;;;;;7.17;5.15;;;;;;;15.11;100.00;100681.30;1784489;79;20975;-88
2021/09/01 08:54:21;;;;;;;5.42;4.35;;;;;;;15.14;100.00;100683.70;1782485;80;21007;-86
2021/09/01 08:56:47;;;;;;;6.40;4.70;;;;;;;15.11;100.00;100677.32;1776002;79;21470;-89
2021/09/01 08:59:13;;;;;;;8.58;4.92;;;;;;;15.14;100.00;100681.05;1783990;80;20954;-89
2021/09/01 09:01:46;;;;;;;7.08;4.83;;;;;;;15.21;100.00;100680.38;1784442;80;21461;-88
2021/09/01 09:04:19;;;;;;;7.53;4.67;;;;;;;15.28;100.00;100688.66;1784550;80;21417;-88
2021/09/01 09:06:54;;;;;;;6.80;4.80;;;;;;;15.39;100.00;100683.73;1784258;80;21010;-86
2021/09/01 09:09:27;;;;;;;7.33;5.25;;;;;;;15.46;100.00;100676.89;1783633;80;21020;-89
2021/09/01 09:11:55;;;;;;;7.22;5.15;;;;;;;15.51;100.00;100683.16;1771852;80;21540;-89
2021/09/01 09:14:39;;;;;;;7.10;4.35;;;;;;;15.56;100.00;100695.05;1781090;79;21475;-89
2021/09/01 09:17:19;;;;;;;5.97;4.28;;;;;;;15.62;100.00;100684.37;1785520;80;20954;-87
2021/09/01 09:19:56;;;;;;;6.22;4.50;;;;;;;15.71;100.00;100690.25;1790350;80;20997;-87
2021/09/01 09:22:37;;;;;;;6.10;3.72;;;;;;;15.74;100.00;100683.33;1789875;79;20986;-87
2021/09/01 09:25:14;;;;;;;5.83;4.08;;;;;;;15.77;100.00;100687.05;1790738;79;21558;-90
2021/09/01 09:27:51;;;;;;;8.58;4.33;;;;;;;15.82;100.00;100690.12;1788962;79;21088;-86
2021/09/01 09:30:40;;;;;;;6.58;3.58;;;;;;;15.85;100.00;100676.55;1790305;79;20984;-88
2021/09/01 09:33:19;;;;;;;8.98;5.08;;;;;;;15.93;100.00;100679.88;1784849;79;21062;-89
2021/09/01 09:36:04;;;;;;;8.78;4.00;;;;;;;16.00;100.00;100686.83;1782408;80;21454;-88
2021/09/01 09:38:43;;;;;;;9.15;4.90;;;;;;;16.02;100.00;100679.03;1778629;80;20999;-89
2021/09/01 09:41:25;;;;;;;6.50;4.28;;;;;;;16.04;100.00;100685.56;1759419;81;21045;-89
2021/09/01 09:43:58;;;;;;;5.70;4.20;;;;;;;16.07;100.00;100687.95;1759348;81;21084;-88
2021/09/01 09:46:25;;;;;;;6.08;4.20;;;;;;;16.09;99.36;100687.30;1757983;81;21071;-88
2021/09/01 09:48:53;;;;;;;4.83;3.75;;;;;;;16.13;100.00;100692.73;1764093;80;20991;-86
2021/09/01 09:51:42;;;;;;;5.25;4.03;;;;;;;16.22;100.00;100689.70;1788241;80;20938;-89
2021/09/01 09:54:23;;;;;;;7.30;4.75;;;;;;;16.33;100.00;100698.41;1787147;80;21066;-89
2021/09/01 09:56:51;;;;;;;7.78;4.92;;;;;;;16.38;100.00;100698.82;1781647;80;20976;-88
2021/09/01 09:59:21;;;;;;;6.72;4.53;;;;;;;16.43;99.64;100698.91;1782327;80;21062;-87
2021/09/01 10:01:49;;;;;;;4.62;3.70;;;;;;;16.46;99.02;100707.46;1781291;80;21011;-88
2021/09/01 10:04:15;;;;;;;6.47;4.33;;;;;;;16.50;99.61;100704.03;1781943;80;20948;-89
2021/09/01 10:06:43;;;;;;;6.10;3.72;;;;;;;16.55;99.18;100707.09;1782178;80;21803;-87
2021/09/01 10:09:10;;;;;;;6.35;4.35;;;;;;;16.61;99.17;100711.86;1782267;80;21501;-88
2021/09/01 10:11:39;;;;;;;5.97;3.83;;;;;;;16.72;97.89;100708.23;1784524;80;21022;-86
2021/09/01 10:14:07;;;;;;;6.70;4.67;;;;;;;16.72;97.89;100701.56;1783961;80;21006;-87
2021/09/01 10:16:36;;;;;;;5.80;3.85;;;;;;;16.67;97.54;100707.80;1784349;80;21571;-87
2021/09/01 10:19:08;;;;;;;7.05;4.45;;;;;;;16.58;97.08;100707.68;1761854;80;21060;-87
2021/09/01 10:21:39;;;;;;;5.95;3.95;;;;;;;16.56;98.22;100708.30;1746724;81;21052;-88
2021/09/01 10:24:22;;;;;;;5.45;4.03;;;;;;;16.62;98.58;100705.08;1746709;81;21060;-88
2021/09/01 10:27:06;;;;;;;;;;;;;;;16.73;97.66;100704.58;1749532;82;20989;-90
2021/09/01 10:29:57;;;;;;;6.35;3.90;;;;;;;16.79;98.22;100702.70;1781018;80;20156;-89
2021/09/01 10:32:33;;;;;;;7.60;4.25;;;;;;;16.80;97.35;100701.22;1783329;80;21017;-88
2021/09/01 10:35:17;;;;;;;8.38;4.08;;;;;;;16.79;96.43;100703.55;1776764;80;21447;-87
2021/09/01 10:37:45;;;;;;;4.45;3.33;;;;;;;16.80;97.38;100709.22;1782095;80;21489;-87
2021/09/01 10:40:30;;;;;;;5.50;3.52;;;;;;;16.90;98.03;100708.36;1782585;80;21416;-88
2021/09/01 10:42:58;;;;;;;7.62;4.20;;;;;;;16.96;97.66;100702.47;1782163;80;21029;-84
2021/09/01 10:45:36;;;;;;;5.67;3.83;;;;;;;17.05;95.58;100703.78;1783798;80;20973;-85
2021/09/01 10:48:07;;;;;;;5.00;3.62;;;;;;;17.15;96.94;100710.92;1776277;79;21061;-84
2021/09/01 10:50:38;;;;;;;6.50;3.90;;;;;;;17.13;96.30;100705.72;1777828;79;21488;-84
2021/09/01 10:53:22;;;;;;;5.83;3.85;;;;;;;17.09;95.66;100710.99;1781136;80;22214;-88
2021/09/01 10:55:59;;;;;;;4.95;3.17;;;;;;;17.02;94.80;100705.89;1778100;80;21049;-89
2021/09/01 10:58:36;;;;;;;5.22;3.60;;;;;;;17.07;95.89;100706.28;1773592;80;21005;-89
2021/09/01 11:01:13;;;;;;;4.72;3.52;;;;;;;17.10;95.77;100698.00;1781791;80;20970;-86
2021/09/01 11:03:50;;;;;;;4.85;3.50;;;;;;;17.09;94.50;100699.00;1770073;80;21003;-85
2021/09/01 11:06:24;;;;;;;6.20;3.00;;;;;;;17.04;94.16;100707.91;1783043;80;20990;-88
2021/09/01 11:09:07;;;;;;;3.87;2.80;;;;;;;17.01;93.82;100714.39;1779754;80;21034;-85
2021/09/01 11:11:52;;;;;;;6.35;3.65;;;;;;;16.99;94.88;100714.18;1776965;80;20977;-84
2021/09/01 11:14:42;;;;;;;4.15;3.30;;;;;;;16.98;95.03;100715.14;1772046;80;20955;-89
2021/09/01 11:17:11;;;;;;;5.75;3.30;;;;;;;17.00;95.16;100712.69;1772610;80;21030;-85
2021/09/01 11:19:39;;;;;;;4.92;3.00;;;;;;;17.06;95.79;100721.45;1783391;80;20970;-87
2021/09/01 11:22:12;;;;;;;5.33;2.75;;;;;;;17.17;95.33;100725.77;1783725;80;20979;-88